Time;durP1;ratioP1;P1;durP2;ratioP2;P2;SDS_P1;SDS_P2;PMS_P1;PMS_P2;Temp;Humidity;BMP_temperature;BMP_pressure;BME280_temperature;BME280_humidity;BME280_pressure;Samples;Min_cycle;Max_cycle;Signal;HPM_P1;HPM_P2
2023/04/26 00:02:06;;;;;;;;;;;9.60;76.20;;;;;;5047331;28;19997;-75
2023/04/26 00:04:32;;;;;;;;;;;9.50;76.10;;;;;;5047369;28;19998;-75
2023/04/26 00:06:59;;;;;;;;;;;9.50;76.10;;;;;;5047375;28;19920;-75
2023/04/26 00:09:25;;;;;;;;;;;9.50;76.10;;;;;;5049079;28;19967;-75
2023/04/26 00:11:50;;;;;;;;;;;9.50;76.10;;;;;;5051429;28;19948;-75
2023/04/26 00:14:16;;;;;;;;;;;9.60;76.20;;;;;;5051106;28;19923;-75
2023/04/26 00:16:42;;;;;;;;;;;9.60;76.20;;;;;;5033097;28;19919;-75
2023/04/26 00:19:08;;;;;;;;;;;9.60;76.10;;;;;;5050878;28;20304;-75
2023/04/26 00:21:34;;;;;;;;;;;9.60;76.60;;;;;;5050884;28;19940;-75
2023/04/26 00:24:00;;;;;;;;;;;9.60;76.20;;;;;;5051033;28;20341;-75
2023/04/26 00:26:25;;;;;;;;;;;9.70;76.20;;;;;;5050856;28;20289;-75
2023/04/26 00:28:51;;;;;;;;;;;9.70;76.70;;;;;;5032859;28;19916;-75
2023/04/26 00:31:17;;;;;;;;;;;9.60;76.30;;;;;;5050583;28;19916;-75
2023/04/26 00:33:43;;;;;;;;;;;9.60;76.40;;;;;;5050479;28;19931;-75
2023/04/26 00:36:09;;;;;;;;;;;9.60;76.50;;;;;;5050709;28;19913;-75
2023/04/26 00:38:36;;;;;;;;;;;9.60;76.60;;;;;;5050563;28;19913;-75
2023/04/26 00:41:01;;;;;;;;;;;9.60;76.60;;;;;;5050474;28;19927;-75
2023/04/26 00:43:27;;;;;;;;;;;9.60;76.90;;;;;;5032680;28;19917;-75
2023/04/26 00:45:52;;;;;;;;;;;9.60;76.50;;;;;;5032674;28;20008;-75
2023/04/26 00:48:19;;;;;;;;;;;9.60;76.50;;;;;;5050470;28;19913;-75
2023/04/26 00:50:46;;;;;;;;;;;9.60;76.50;;;;;;5050304;28;19913;-75
2023/04/26 00:53:13;;;;;;;;;;;9.60;76.60;;;;;;5050424;28;20285;-75
2023/04/26 00:55:42;;;;;;;;;;;9.60;76.60;;;;;;5050186;28;19913;-74
2023/04/26 00:58:07;;;;;;;;;;;9.60;76.60;;;;;;5050164;28;20383;-74
2023/04/26 01:00:33;;;;;;;;;;;9.60;76.60;;;;;;5050121;28;20203;-75
2023/04/26 01:02:59;;;;;;;;;;;9.60;76.70;;;;;;5050213;28;19951;-75
2023/04/26 01:05:24;;;;;;;;;;;9.60;76.80;;;;;;5050138;28;20282;-75
2023/04/26 01:07:50;;;;;;;;;;;9.60;76.80;;;;;;5050070;28;20272;-74
2023/04/26 01:10:16;;;;;;;;;;;9.60;76.90;;;;;;5049991;28;19913;-75
2023/04/26 01:12:42;;;;;;;;;;;9.60;76.70;;;;;;5049986;28;19913;-75
2023/04/26 01:15:08;;;;;;;;;;;9.70;76.70;;;;;;5049847;28;20293;-74
2023/04/26 01:17:36;;;;;;;;;;;9.60;76.50;;;;;;5049754;28;19917;-75
2023/04/26 01:20:02;;;;;;;;;;;9.50;76.60;;;;;;5049446;28;19959;-75
2023/04/26 01:22:31;;;;;;;;;;;9.40;76.60;;;;;;5049460;28;19931;-74
2023/04/26 01:24:57;;;;;;;;;;;9.40;76.80;;;;;;5049774;28;19917;-75
2023/04/26 01:27:22;;;;;;;;;;;9.40;77.00;;;;;;5049634;28;19920;-75
2023/04/26 01:29:48;;;;;;;;;;;9.40;77.00;;;;;;5049501;28;20014;-75
2023/04/26 01:32:13;;;;;;;;;;;9.40;77.00;;;;;;5049589;28;20389;-75
2023/04/26 01:34:39;;;;;;;;;;;9.50;76.90;;;;;;5049615;28;19925;-74
2023/04/26 01:37:06;;;;;;;;;;;9.50;76.80;;;;;;5015094;28;19934;-75
2023/04/26 01:39:32;;;;;;;;;;;9.50;76.80;;;;;;5049365;28;19917;-74
2023/04/26 01:41:58;;;;;;;;;;;9.50;76.80;;;;;;5049446;28;19924;-74
2023/04/26 01:44:23;;;;;;;;;;;9.40;76.80;;;;;;5049373;28;19913;-75
2023/04/26 01:46:49;;;;;;;;;;;9.30;77.40;;;;;;5049369;28;19970;-75
2023/04/26 01:49:15;;;;;;;;;;;9.30;77.00;;;;;;5049197;28;19920;-74
2023/04/26 01:51:41;;;;;;;;;;;9.30;77.10;;;;;;5031340;28;19991;-75
2023/04/26 01:54:06;;;;;;;;;;;9.40;77.10;;;;;;5049181;28;19920;-75
2023/04/26 01:56:32;;;;;;;;;;;9.40;77.10;;;;;;5049157;28;19909;-75
2023/04/26 01:58:58;;;;;;;;;;;9.30;77.00;;;;;;5049016;28;19920;-74
2023/04/26 02:01:23;;;;;;;;;;;9.40;77.10;;;;;;5049038;28;20289;-75
2023/04/26 02:03:49;;;;;;;;;;;9.40;77.10;;;;;;5049001;28;19919;-75
2023/04/26 02:06:15;;;;;;;;;;;9.40;77.20;;;;;;5049324;28;19913;-75
2023/04/26 02:08:40;;;;;;;;;;;9.50;77.00;;;;;;5049183;28;19939;-75
2023/04/26 02:11:06;;;;;;;;;;;9.60;76.90;;;;;;5048845;28;19954;-75
2023/04/26 02:13:31;;;;;;;;;;;9.70;76.80;;;;;;5048741;28;19919;-75
2023/04/26 02:15:58;;;;;;;;;;;9.70;76.70;;;;;;5048766;28;19927;-75
2023/04/26 02:18:23;;;;;;;;;;;9.70;76.60;;;;;;5048569;28;19948;-75
2023/04/26 02:20:49;;;;;;;;;;;9.80;76.70;;;;;;5048633;28;19956;-75
2023/04/26 02:23:15;;;;;;;;;;;9.80;76.70;;;;;;5030788;28;19936;-75
2023/04/26 02:25:41;;;;;;;;;;;9.90;76.70;;;;;;5048598;28;19909;-75
2023/04/26 02:28:07;;;;;;;;;;;9.80;76.60;;;;;;5048739;28;20015;-75
2023/04/26 02:30:32;;;;;;;;;;;9.90;76.70;;;;;;5048413;28;20405;-75
2023/04/26 02:32:58;;;;;;;;;;;9.90;76.70;;;;;;5047427;28;19924;-75
2023/04/26 02:35:24;;;;;;;;;;;9.90;76.80;;;;;;5048437;28;19939;-75
2023/04/26 02:37:51;;;;;;;;;;;9.90;76.70;;;;;;5048304;28;19924;-76
2023/04/26 02:40:17;;;;;;;;;;;9.90;76.70;;;;;;5048339;28;19909;-75
2023/04/26 02:42:42;;;;;;;;;;;9.90;76.60;;;;;;5048271;28;19916;-75
2023/04/26 02:45:08;;;;;;;;;;;9.90;76.80;;;;;;5048271;28;19917;-75
2023/04/26 02:47:35;;;;;;;;;;;9.90;76.80;;;;;;5048181;28;20395;-75
2023/04/26 02:50:05;;;;;;;;;;;9.90;76.80;;;;;;5048052;28;20003;-75
2023/04/26 02:52:30;;;;;;;;;;;9.80;76.80;;;;;;5047990;28;20011;-75
2023/04/26 02:54:56;;;;;;;;;;;9.80;76.90;;;;;;5048087;28;20046;-75
2023/04/26 02:57:21;;;;;;;;;;;9.70;76.90;;;;;;5048298;28;19923;-74
2023/04/26 02:59:47;;;;;;;;;;;9.70;77.00;;;;;;5047937;28;19919;-75
2023/04/26 03:02:12;;;;;;;;;;;9.80;77.00;;;;;;5047973;28;19917;-75
2023/04/26 03:04:38;;;;;;;;;;;9.70;77.00;;;;;;5047962;28;19919;-75
2023/04/26 03:07:04;;;;;;;;;;;9.80;77.00;;;;;;5047946;28;20377;-75
2023/04/26 03:09:30;;;;;;;;;;;9.80;77.00;;;;;;5047828;28;19913;-75
2023/04/26 03:11:55;;;;;;;;;;;9.80;77.00;;;;;;5047793;28;20328;-75
2023/04/26 03:14:21;;;;;;;;;;;9.80;77.10;;;;;;5047819;28;19916;-75
2023/04/26 03:16:50;;;;;;;;;;;9.80;77.10;;;;;;5047892;28;19913;-74
2023/04/26 03:19:15;;;;;;;;;;;9.80;77.10;;;;;;5047914;28;20415;-75
2023/04/26 03:21:41;;;;;;;;;;;9.80;77.10;;;;;;5029949;28;19921;-74
2023/04/26 03:24:06;;;;;;;;;;;9.80;77.10;;;;;;5029780;28;19909;-75
2023/04/26 03:26:32;;;;;;;;;;;9.90;77.10;;;;;;5047706;28;19954;-75
2023/04/26 03:28:58;;;;;;;;;;;9.90;77.00;;;;;;5047793;28;19913;-75
2023/04/26 03:31:23;;;;;;;;;;;9.90;77.00;;;;;;5047664;28;20397;-75
2023/04/26 03:33:49;;;;;;;;;;;9.90;76.90;;;;;;5047592;28;19925;-75
2023/04/26 03:36:15;;;;;;;;;;;9.90;76.90;;;;;;5047650;28;20284;-75
2023/04/26 03:38:41;;;;;;;;;;;9.80;76.90;;;;;;5047584;28;19917;-75
2023/04/26 03:41:07;;;;;;;;;;;9.80;76.90;;;;;;5047488;28;20365;-75
2023/04/26 03:43:33;;;;;;;;;;;9.70;77.00;;;;;;5047960;28;20027;-75
2023/04/26 03:45:59;;;;;;;;;;;9.60;77.10;;;;;;5051652;28;20062;-75
2023/04/26 03:48:24;;;;;;;;;;;9.60;77.10;;;;;;5051658;28;20377;-75
2023/04/26 03:50:50;;;;;;;;;;;9.70;77.20;;;;;;5033427;28;19919;-75
2023/04/26 03:53:16;;;;;;;;;;;9.70;77.10;;;;;;5051256;28;19940;-75
2023/04/26 03:55:42;;;;;;;;;;;9.80;77.10;;;;;;5051122;28;19995;-75
2023/04/26 03:58:07;;;;;;;;;;;9.80;76.90;;;;;;5051100;28;20069;-75
2023/04/26 04:00:36;;;;;;;;;;;9.70;76.90;;;;;;5050936;28;20015;-75
2023/04/26 04:03:02;;;;;;;;;;;9.70;76.90;;;;;;5033098;28;20349;-75
2023/04/26 04:05:28;;;;;;;;;;;9.70;76.90;;;;;;5051013;28;19919;-74
2023/04/26 04:07:55;;;;;;;;;;;9.70;76.90;;;;;;5051145;28;20003;-74
2023/04/26 04:10:22;;;;;;;;;;;9.70;76.80;;;;;;5051068;28;19912;-75
2023/04/26 04:12:48;;;;;;;;;;;9.60;76.90;;;;;;5051113;28;19990;-75
2023/04/26 04:15:13;;;;;;;;;;;9.60;76.90;;;;;;5033096;28;20373;-75
2023/04/26 04:17:39;;;;;;;;;;;9.60;76.90;;;;;;5050911;28;19917;-75
2023/04/26 04:20:06;;;;;;;;;;;9.60;77.40;;;;;;5050885;28;20349;-75
2023/04/26 04:22:31;;;;;;;;;;;9.50;76.80;;;;;;5032967;28;20266;-75
2023/04/26 04:24:59;;;;;;;;;;;9.40;76.90;;;;;;5050781;28;19994;-75
2023/04/26 04:27:27;;;;;;;;;;;9.40;77.00;;;;;;5050802;28;20016;-75
2023/04/26 04:29:53;;;;;;;;;;;9.40;77.00;;;;;;5050747;28;19919;-75
2023/04/26 04:32:20;;;;;;;;;;;9.40;77.10;;;;;;5050751;28;19984;-75
2023/04/26 04:34:45;;;;;;;;;;;9.40;77.10;;;;;;5050547;28;19952;-75
2023/04/26 04:37:11;;;;;;;;;;;9.40;77.10;;;;;;5050665;28;19917;-75
2023/04/26 04:39:36;;;;;;;;;;;9.40;77.00;;;;;;5050354;28;19930;-75
2023/04/26 04:42:02;;;;;;;;;;;9.40;77.00;;;;;;5050416;28;19912;-75
2023/04/26 04:44:28;;;;;;;;;;;9.40;77.00;;;;;;5050223;28;20348;-75
2023/04/26 04:46:53;;;;;;;;;;;9.40;77.00;;;;;;5032239;28;19913;-75
2023/04/26 04:49:19;;;;;;;;;;;9.40;77.10;;;;;;5049875;28;19913;-75
2023/04/26 04:51:45;;;;;;;;;;;9.40;77.00;;;;;;5050026;28;19909;-75
2023/04/26 04:54:11;;;;;;;;;;;9.40;77.00;;;;;;5032174;28;20589;-75
2023/04/26 04:56:37;;;;;;;;;;;9.40;77.00;;;;;;5049014;28;19935;-74
2023/04/26 04:59:03;;;;;;;;;;;9.40;77.00;;;;;;5049619;28;19913;-74
2023/04/26 05:01:30;;;;;;;;;;;9.40;77.00;;;;;;5049687;28;19920;-75
2023/04/26 05:03:55;;;;;;;;;;;9.40;76.90;;;;;;5050047;28;19919;-75
2023/04/26 05:06:21;;;;;;;;;;;9.40;76.80;;;;;;5050132;28;19912;-75
2023/04/26 05:08:47;;;;;;;;;;;9.40;76.70;;;;;;5049942;28;19940;-75
2023/04/26 05:11:12;;;;;;;;;;;9.40;76.80;;;;;;5050072;28;19913;-75
2023/04/26 05:13:38;;;;;;;;;;;9.40;76.90;;;;;;5049856;28;20316;-75
2023/04/26 05:16:03;;;;;;;;;;;9.40;76.80;;;;;;5049757;28;19919;-75
2023/04/26 05:18:29;;;;;;;;;;;9.40;76.90;;;;;;5049817;28;20434;-75
2023/04/26 05:20:56;;;;;;;;;;;9.40;76.90;;;;;;5049546;28;19919;-75
2023/04/26 05:23:21;;;;;;;;;;;9.40;76.90;;;;;;5049596;28;20582;-76
2023/04/26 05:25:47;;;;;;;;;;;9.40;76.90;;;;;;5031734;28;19925;-76
2023/04/26 05:28:13;;;;;;;;;;;9.40;77.00;;;;;;5049617;28;20023;-76
2023/04/26 05:30:39;;;;;;;;;;;9.50;77.00;;;;;;5031439;28;19913;-75
2023/04/26 05:33:05;;;;;;;;;;;9.50;76.90;;;;;;5049361;28;19963;-76
2023/04/26 05:35:32;;;;;;;;;;;9.50;76.90;;;;;;5049463;28;20160;-75
2023/04/26 05:37:57;;;;;;;;;;;9.50;76.80;;;;;;5049402;28;19970;-75
2023/04/26 05:40:23;;;;;;;;;;;9.60;76.80;;;;;;5049380;28;19913;-75
2023/04/26 05:42:50;;;;;;;;;;;9.60;76.70;;;;;;5030866;28;20199;-75
2023/04/26 05:45:16;;;;;;;;;;;9.60;76.70;;;;;;5049384;28;19913;-75
2023/04/26 05:47:41;;;;;;;;;;;9.70;76.80;;;;;;5049293;28;19947;-75
2023/04/26 05:50:07;;;;;;;;;;;9.70;76.70;;;;;;5049125;28;19916;-75
2023/04/26 05:52:33;;;;;;;;;;;9.70;76.70;;;;;;5049230;28;19913;-75
2023/04/26 05:55:01;;;;;;;;;;;9.70;76.70;;;;;;5048927;28;19909;-75
2023/04/26 05:57:26;;;;;;;;;;;9.80;76.60;;;;;;5048809;28;19912;-75
2023/04/26 05:59:52;;;;;;;;;;;9.80;76.50;;;;;;5048925;28;19913;-75
2023/04/26 06:02:17;;;;;;;;;;;9.80;76.40;;;;;;5049100;28;20011;-75
2023/04/26 06:04:43;;;;;;;;;;;9.80;76.50;;;;;;5048783;28;19913;-75
2023/04/26 06:07:08;;;;;;;;;;;9.80;76.50;;;;;;5048773;28;20307;-75
2023/04/26 06:09:34;;;;;;;;;;;9.80;76.60;;;;;;5048548;28;19920;-76
2023/04/26 06:12:01;;;;;;;;;;;9.80;76.70;;;;;;5049044;28;19978;-75
2023/04/26 06:14:26;;;;;;;;;;;9.70;76.70;;;;;;5048861;28;19924;-75
2023/04/26 06:16:52;;;;;;;;;;;9.70;76.70;;;;;;5030638;28;19913;-75
2023/04/26 06:19:17;;;;;;;;;;;9.60;76.60;;;;;;5048324;28;20010;-75
2023/04/26 06:21:43;;;;;;;;;;;9.70;76.80;;;;;;5048379;28;20015;-75
2023/04/26 06:24:08;;;;;;;;;;;9.60;76.80;;;;;;5048255;28;20054;-75
2023/04/26 06:26:34;;;;;;;;;;;9.70;76.80;;;;;;5030565;28;19920;-75
2023/04/26 06:29:00;;;;;;;;;;;9.70;76.90;;;;;;5013952;28;19912;-75
2023/04/26 06:31:25;;;;;;;;;;;9.80;76.90;;;;;;5013823;28;19912;-76
2023/04/26 06:33:51;;;;;;;;;;;9.90;77.00;;;;;;5048462;28;19971;-75
2023/04/26 06:36:17;;;;;;;;;;;10.10;77.10;;;;;;5048067;28;19913;-75
2023/04/26 06:38:42;;;;;;;;;;;10.20;77.10;;;;;;5048125;28;19974;-75
2023/04/26 06:41:08;;;;;;;;;;;10.30;77.00;;;;;;5030000;28;20007;-76
2023/04/26 06:43:33;;;;;;;;;;;10.40;77.10;;;;;;5048124;28;19924;-76
2023/04/26 06:45:59;;;;;;;;;;;10.50;77.20;;;;;;5030279;28;20112;-75
2023/04/26 06:48:25;;;;;;;;;;;10.60;77.20;;;;;;5047811;28;20012;-75
2023/04/26 06:50:50;;;;;;;;;;;10.70;77.30;;;;;;5047938;28;19909;-76
2023/04/26 06:53:16;;;;;;;;;;;10.90;77.50;;;;;;5047970;28;20471;-76
2023/04/26 06:55:42;;;;;;;;;;;11.10;77.60;;;;;;5047688;28;20289;-75
2023/04/26 06:58:07;;;;;;;;;;;11.40;77.60;;;;;;5047721;28;20011;-75
2023/04/26 07:00:33;;;;;;;;;;;11.50;77.40;;;;;;5047684;28;19921;-75
2023/04/26 07:02:58;;;;;;;;;;;11.70;77.50;;;;;;5029044;28;19913;-75
2023/04/26 07:05:24;;;;;;;;;;;11.90;77.60;;;;;;5012949;28;20007;-76
2023/04/26 07:07:49;;;;;;;;;;;12.10;77.70;;;;;;5029276;28;20254;-75
2023/04/26 07:10:15;;;;;;;;;;;12.30;77.70;;;;;;5047174;28;20199;-76
2023/04/26 07:12:41;;;;;;;;;;;12.60;77.90;;;;;;5047627;28;19924;-76
2023/04/26 07:15:07;;;;;;;;;;;13.10;78.80;;;;;;5047821;28;20387;-76
2023/04/26 07:17:32;;;;;;;;;;;14.20;79.80;;;;;;5029724;28;19913;-76
2023/04/26 07:19:58;;;;;;;;;;;15.20;79.00;;;;;;5028861;28;19916;-76
2023/04/26 07:22:23;;;;;;;;;;;15.80;78.50;;;;;;5047512;28;19912;-75
2023/04/26 07:24:49;;;;;;;;;;;16.30;77.80;;;;;;5047341;28;19917;-74
2023/04/26 07:27:15;;;;;;;;;;;16.60;77.30;;;;;;5029468;28;19937;-76
2023/04/26 07:29:41;;;;;;;;;;;16.70;77.10;;;;;;5047196;28;19917;-76
2023/04/26 07:32:06;;;;;;;;;;;16.60;77.70;;;;;;5047366;28;20003;-76
2023/04/26 07:34:32;;;;;;;;;;;16.50;77.50;;;;;;5029350;28;20373;-76
2023/04/26 07:36:57;;;;;;;;;;;16.50;77.60;;;;;;5047287;28;19927;-76
2023/04/26 07:39:23;;;;;;;;;;;16.50;77.70;;;;;;5047109;28;20012;-75
2023/04/26 07:41:49;;;;;;;;;;;16.40;77.70;;;;;;5029071;28;19917;-74
2023/04/26 07:44:15;;;;;;;;;;;16.20;77.60;;;;;;5047203;28;19913;-74
2023/04/26 07:46:40;;;;;;;;;;;15.90;77.90;;;;;;5046875;28;20377;-74
2023/04/26 07:49:06;;;;;;;;;;;15.80;78.10;;;;;;5029264;28;19920;-74
2023/04/26 07:51:32;;;;;;;;;;;15.60;78.20;;;;;;5028961;28;20380;-74
2023/04/26 07:53:57;;;;;;;;;;;15.60;78.40;;;;;;5046899;28;19917;-74
2023/04/26 07:56:23;;;;;;;;;;;15.50;78.20;;;;;;5046786;28;19909;-74
2023/04/26 07:58:49;;;;;;;;;;;15.50;78.10;;;;;;5046672;28;20208;-74
2023/04/26 08:01:14;;;;;;;;;;;15.40;78.10;;;;;;5046822;28;20369;-75
2023/04/26 08:03:41;;;;;;;;;;;15.20;78.20;;;;;;5046673;28;19909;-75
2023/04/26 08:06:07;;;;;;;;;;;15.20;78.20;;;;;;5047032;28;19913;-75
2023/04/26 08:08:34;;;;;;;;;;;15.20;78.30;;;;;;5046769;28;19952;-74
2023/04/26 08:11:00;;;;;;;;;;;15.20;78.10;;;;;;5046743;28;19912;-75
2023/04/26 08:13:25;;;;;;;;;;;15.30;78.20;;;;;;5047012;28;19909;-74
2023/04/26 08:15:51;;;;;;;;;;;15.30;78.20;;;;;;5046971;28;19913;-75
2023/04/26 08:18:20;;;;;;;;;;;15.40;78.10;;;;;;5028909;28;19927;-75
2023/04/26 08:20:45;;;;;;;;;;;15.40;78.10;;;;;;5029041;28;20000;-75
2023/04/26 08:23:11;;;;;;;;;;;15.50;78.40;;;;;;5046700;28;20409;-75
2023/04/26 08:25:37;;;;;;;;;;;15.60;79.10;;;;;;5012154;28;20411;-76
2023/04/26 08:28:03;;;;;;;;;;;15.70;78.60;;;;;;5046333;28;19913;-75
2023/04/26 08:30:28;;;;;;;;;;;15.80;78.80;;;;;;5047979;28;20007;-75
2023/04/26 08:32:55;;;;;;;;;;;16.00;78.80;;;;;;5031628;28;19989;-76
2023/04/26 08:35:20;;;;;;;;;;;16.30;78.80;;;;;;5031661;28;19925;-75
2023/04/26 08:37:46;;;;;;;;;;;16.50;78.90;;;;;;5049663;28;19982;-75
2023/04/26 08:40:11;;;;;;;;;;;16.70;78.90;;;;;;5049882;28;19920;-75
2023/04/26 08:42:39;;;;;;;;;;;16.80;78.90;;;;;;5050099;28;19921;-75
2023/04/26 08:45:07;;;;;;;;;;;17.00;79.00;;;;;;5031642;28;19974;-75
2023/04/26 08:47:38;;;;;;;;;;;17.10;78.90;;;;;;5049570;28;19962;-75
2023/04/26 08:50:04;;;;;;;;;;;17.10;79.20;;;;;;5049534;28;19913;-75
2023/04/26 08:52:31;;;;;;;;;;;17.40;80.00;;;;;;5050228;28;20301;-70
2023/04/26 08:54:57;;;;;;;;;;;17.90;80.40;;;;;;5031794;28;19909;-70
2023/04/26 08:57:23;;;;;;;;;;;18.30;80.50;;;;;;5049794;28;19909;-71
2023/04/26 08:59:51;;;;;;;;;;;18.40;80.00;;;;;;5031702;28;20273;-71
2023/04/26 09:02:17;;;;;;;;;;;18.60;80.10;;;;;;5050780;28;19912;-71
2023/04/26 09:04:44;;;;;;;;;;;18.80;79.90;;;;;;5050307;28;19916;-72
2023/04/26 09:07:12;;;;;;;;;;;19.10;80.40;;;;;;5032754;28;19909;-72
2023/04/26 09:09:40;;;;;;;;;;;19.40;79.80;;;;;;5050370;28;19959;-71
2023/04/26 09:12:06;;;;;;;;;;;19.40;79.90;;;;;;5050408;28;19959;-72
2023/04/26 09:14:32;;;;;;;;;;;19.40;79.90;;;;;;5026791;28;19963;-72
2023/04/26 09:16:57;;;;;;;;;;;19.40;80.20;;;;;;5034371;28;19925;-72
2023/04/26 09:19:36;;;;;;;;;;;19.60;80.70;;;;;;5040134;28;19917;-72
2023/04/26 09:22:02;;;;;;;;;;;20.10;80.80;;;;;;5039931;28;20330;-71
2023/04/26 09:24:28;;;;;;;;;;;20.40;80.20;;;;;;5033787;28;19951;-71
2023/04/26 09:27:00;;;;;;;;;;;20.50;79.90;;;;;;5040133;28;19982;-71
2023/04/26 09:29:25;;;;;;;;;;;20.60;79.70;;;;;;5036688;28;19951;-71
2023/04/26 09:31:51;;;;;;;;;;;20.40;79.10;;;;;;5038715;28;19952;-71
2023/04/26 09:34:17;;;;;;;;;;;20.10;79.10;;;;;;5040941;28;20364;-71
2023/04/26 09:36:49;;;;;;;;;;;19.70;79.20;;;;;;5022161;28;19935;-71
2023/04/26 09:39:29;;;;;;;;;;;19.30;79.40;;;;;;5037999;28;19967;-71
2023/04/26 09:41:55;;;;;;;;;;;19.00;79.60;;;;;;5037621;28;19921;-71
2023/04/26 09:44:21;;;;;;;;;;;18.70;79.90;;;;;;5022300;28;19916;-72
2023/04/26 09:47:04;;;;;;;;;;;18.50;79.60;;;;;;5038458;28;19920;-71
2023/04/26 09:49:30;;;;;;;;;;;18.20;79.50;;;;;;5039307;28;20029;-71
2023/04/26 09:52:00;;;;;;;;;;;18.00;79.40;;;;;;5040412;28;19937;-71
2023/04/26 09:54:38;;;;;;;;;;;17.80;79.50;;;;;;5040246;28;19974;-71
2023/04/26 09:57:03;;;;;;;;;;;17.80;79.40;;;;;;5038310;28;19908;-71
2023/04/26 09:59:39;;;;;;;;;;;17.50;79.00;;;;;;5045782;28;19928;-73
2023/04/26 10:02:07;;;;;;;;;;;17.20;79.20;;;;;;5031715;28;19913;-70
2023/04/26 10:04:33;;;;;;;;;;;17.00;79.40;;;;;;5029631;28;19913;-70
2023/04/26 10:06:59;;;;;;;;;;;16.90;79.40;;;;;;5029022;28;19923;-71
2023/04/26 10:09:26;;;;;;;;;;;16.80;79.40;;;;;;5011565;28;19917;-72
2023/04/26 10:11:52;;;;;;;;;;;16.70;79.50;;;;;;5029570;28;19916;-71
2023/04/26 10:14:17;;;;;;;;;;;16.60;79.70;;;;;;5011885;28;20269;-72
2023/04/26 10:16:43;;;;;;;;;;;16.60;80.00;;;;;;5011418;28;19994;-72
2023/04/26 10:19:09;;;;;;;;;;;16.70;80.20;;;;;;5029105;28;19917;-72
2023/04/26 10:21:36;;;;;;;;;;;16.90;80.10;;;;;;5029059;28;20047;-70
2023/04/26 10:24:02;;;;;;;;;;;17.00;80.00;;;;;;5028813;28;20031;-71
2023/04/26 10:26:50;;;;;;;;;;;17.20;80.00;;;;;;5028539;28;19917;-72
2023/04/26 10:29:16;;;;;;;;;;;17.40;79.80;;;;;;5028655;28;19909;-71
2023/04/26 10:32:00;;;;;;;;;;;17.50;79.40;;;;;;5028558;28;20015;-72
2023/04/26 10:34:26;;;;;;;;;;;17.50;79.20;;;;;;5028231;28;19925;-71
2023/04/26 10:37:11;;;;;;;;;;;17.60;79.10;;;;;;5028305;28;20278;-71
2023/04/26 10:39:37;;;;;;;;;;;17.60;79.20;;;;;;5028551;28;19994;-71
2023/04/26 10:42:31;;;;;;;;;;;17.80;79.40;;;;;;5029051;28;19909;-71
2023/04/26 10:44:57;;;;;;;;;;;17.80;79.60;;;;;;5008357;28;19916;-71
2023/04/26 10:47:27;;;;;;;;;;;18.00;80.20;;;;;;5028610;28;20003;-71
2023/04/26 10:50:00;;;;;;;;;;;18.20;80.00;;;;;;5028347;28;19948;-71
2023/04/26 10:52:26;;;;;;;;;;;18.20;79.90;;;;;;5010447;28;20289;-71
2023/04/26 10:54:55;;;;;;;;;;;18.30;79.60;;;;;;5027026;28;19913;-69
2023/04/26 10:57:22;;;;;;;;;;;18.30;79.60;;;;;;5027794;28;19916;-70
2023/04/26 11:00:12;;;;;;;;;;;18.20;79.80;;;;;;5009983;28;19931;-72
2023/04/26 11:02:56;;;;;;;;;;;18.30;80.00;;;;;;5027261;28;20316;-72
2023/04/26 11:05:39;;;;;;;;;;;18.50;79.90;;;;;;5027876;28;19917;-71
2023/04/26 11:08:11;;;;;;;;;;;18.80;79.90;;;;;;5028630;28;19909;-72
2023/04/26 11:10:37;;;;;;;;;;;19.50;81.10;;;;;;5036537;28;20051;-72
2023/04/26 11:13:03;;;;;;;;;;;20.90;81.90;;;;;;5037797;28;19915;-72
2023/04/26 11:15:32;;;;;;;;;;;21.90;81.20;;;;;;5030601;28;19974;-71
2023/04/26 11:17:57;;;;;;;;;;;22.00;80.20;;;;;;5028340;28;19917;-72
2023/04/26 11:20:32;;;;;;;;;;;21.80;79.50;;;;;;5028366;28;19920;-70
2023/04/26 11:22:58;;;;;;;;;;;21.60;79.30;;;;;;5028404;28;19920;-71
2023/04/26 11:25:25;;;;;;;;;;;21.50;79.40;;;;;;5028434;28;19968;-71
2023/04/26 11:27:55;;;;;;;;;;;21.20;78.50;;;;;;5028220;28;20281;-71
2023/04/26 11:30:21;;;;;;;;;;;20.60;78.70;;;;;;5027961;28;19909;-71
2023/04/26 11:32:46;;;;;;;;;;;20.30;79.00;;;;;;5028140;28;19913;-71
2023/04/26 11:35:13;;;;;;;;;;;20.10;78.90;;;;;;5028431;28;19956;-71
2023/04/26 11:37:39;;;;;;;;;;;19.90;79.00;;;;;;5028347;28;19909;-75
2023/04/26 11:40:06;;;;;;;;;;;19.70;78.70;;;;;;5027979;28;19913;-70
2023/04/26 11:42:31;;;;;;;;;;;19.50;78.90;;;;;;5028411;28;19952;-69
2023/04/26 11:44:58;;;;;;;;;;;19.20;78.30;;;;;;5010339;28;19960;-74
2023/04/26 11:47:24;;;;;;;;;;;19.00;78.30;;;;;;5028290;28;19917;-74
2023/04/26 11:49:50;;;;;;;;;;;18.70;78.40;;;;;;5010515;28;20012;-71
2023/04/26 11:52:16;;;;;;;;;;;18.40;78.70;;;;;;5010383;28;20002;-71
2023/04/26 11:54:43;;;;;;;;;;;18.10;79.10;;;;;;5028423;28;20000;-74
2023/04/26 11:57:12;;;;;;;;;;;17.90;79.60;;;;;;5028218;28;20004;-71
2023/04/26 11:59:37;;;;;;;;;;;17.90;79.70;;;;;;5027580;28;19956;-72
2023/04/26 12:02:06;;;;;;;;;;;18.00;79.80;;;;;;5010148;28;20035;-72
2023/04/26 12:04:33;;;;;;;;;;;18.10;79.60;;;;;;5028503;28;20283;-74
2023/04/26 12:06:58;;;;;;;;;;;18.30;79.50;;;;;;5031690;28;20003;-71
2023/04/26 12:09:28;;;;;;;;;;;18.50;79.40;;;;;;5031500;28;19992;-72
2023/04/26 12:11:58;;;;;;;;;;;18.70;79.50;;;;;;5031649;28;20365;-71
2023/04/26 12:14:33;;;;;;;;;;;19.00;79.90;;;;;;5031534;28;19913;-71
2023/04/26 12:17:02;;;;;;;;;;;19.30;79.80;;;;;;5037803;28;19912;-71
2023/04/26 12:19:38;;;;;;;;;;;19.40;79.30;;;;;;5031278;28;19979;-72
2023/04/26 12:22:04;;;;;;;;;;;19.50;79.50;;;;;;5031480;28;19909;-71
2023/04/26 12:24:33;;;;;;;;;;;19.90;79.90;;;;;;5044997;28;19952;-71
2023/04/26 12:26:59;;;;;;;;;;;20.40;80.20;;;;;;5031058;28;20001;-77
2023/04/26 12:29:25;;;;;;;;;;;21.00;80.40;;;;;;5025210;28;20343;-78
2023/04/26 12:31:50;;;;;;;;;;;21.60;80.70;;;;;;5019898;28;19927;-78
2023/04/26 12:34:16;;;;;;;;;;;22.00;80.30;;;;;;5042032;28;20301;-77
2023/04/26 12:36:45;;;;;;;;;;;22.10;79.50;;;;;;5050739;28;19913;-78
2023/04/26 12:39:12;;;;;;;;;;;21.90;79.30;;;;;;5051687;28;19952;-75
2023/04/26 12:41:39;;;;;;;;;;;21.80;79.10;;;;;;5051234;28;19917;-77
2023/04/26 12:44:05;;;;;;;;;;;21.60;78.70;;;;;;5051627;28;20000;-78
2023/04/26 12:46:31;;;;;;;;;;;21.30;78.50;;;;;;5051985;28;20268;-78
2023/04/26 12:48:57;;;;;;;;;;;20.80;78.10;;;;;;5034136;28;20016;-78
2023/04/26 12:51:23;;;;;;;;;;;20.30;78.30;;;;;;5051711;28;19908;-78
2023/04/26 12:53:49;;;;;;;;;;;20.00;78.80;;;;;;5033685;28;19920;-77
2023/04/26 12:56:15;;;;;;;;;;;19.60;78.60;;;;;;5051399;28;19910;-77
2023/04/26 12:58:41;;;;;;;;;;;19.30;78.50;;;;;;5050688;28;20400;-77
2023/04/26 13:01:06;;;;;;;;;;;19.10;78.50;;;;;;5050817;28;19958;-76
2023/04/26 13:03:32;;;;;;;;;;;18.90;78.40;;;;;;5051360;28;19995;-78
2023/04/26 13:05:58;;;;;;;;;;;18.70;78.40;;;;;;5050377;28;19961;-77
2023/04/26 13:08:23;;;;;;;;;;;18.60;78.50;;;;;;5050858;28;20000;-78
2023/04/26 13:10:50;;;;;;;;;;;18.50;78.70;;;;;;5051457;28;19913;-76
2023/04/26 13:13:15;;;;;;;;;;;18.40;78.60;;;;;;5033557;28;19924;-78
2023/04/26 13:15:41;;;;;;;;;;;18.30;78.50;;;;;;5032777;28;19909;-77
2023/04/26 13:18:07;;;;;;;;;;;18.30;78.60;;;;;;5049850;28;19959;-78
2023/04/26 13:20:32;;;;;;;;;;;18.40;78.60;;;;;;5033442;28;19920;-78
2023/04/26 13:22:58;;;;;;;;;;;18.40;78.50;;;;;;5051095;28;19987;-78
2023/04/26 13:25:23;;;;;;;;;;;18.50;78.40;;;;;;5051063;28;19984;-77
2023/04/26 13:27:52;;;;;;;;;;;18.40;78.10;;;;;;5050945;28;19915;-77
2023/04/26 13:30:18;;;;;;;;;;;18.40;78.00;;;;;;5050870;28;20396;-78
2023/04/26 13:32:44;;;;;;;;;;;18.40;78.00;;;;;;5050638;28;20058;-76
2023/04/26 13:35:10;;;;;;;;;;;18.30;78.20;;;;;;5032619;28;20017;-75
2023/04/26 13:37:36;;;;;;;;;;;18.20;78.10;;;;;;5050307;28;20322;-78
2023/04/26 13:40:03;;;;;;;;;;;18.10;78.20;;;;;;5050019;28;20007;-77
2023/04/26 13:42:29;;;;;;;;;;;18.10;78.50;;;;;;5050884;28;19952;-79
2023/04/26 13:44:54;;;;;;;;;;;18.10;78.50;;;;;;5044872;28;20006;-77
2023/04/26 13:47:20;;;;;;;;;;;18.10;78.60;;;;;;5038927;28;19920;-78
2023/04/26 13:49:45;;;;;;;;;;;18.10;78.70;;;;;;5044589;28;20395;-78
2023/04/26 13:52:11;;;;;;;;;;;18.20;78.70;;;;;;5038942;28;19913;-77
2023/04/26 13:54:38;;;;;;;;;;;18.20;78.40;;;;;;5039367;28;20015;-77
2023/04/26 13:57:04;;;;;;;;;;;18.20;78.40;;;;;;5022182;28;20250;-76
2023/04/26 13:59:30;;;;;;;;;;;18.10;78.30;;;;;;5037534;28;19983;-77
2023/04/26 14:01:56;;;;;;;;;;;18.10;78.30;;;;;;5040232;28;19915;-78
2023/04/26 14:04:22;;;;;;;;;;;18.10;78.20;;;;;;5031591;28;19913;-79
2023/04/26 14:06:47;;;;;;;;;;;18.00;78.40;;;;;;5047797;28;20348;-78
2023/04/26 14:09:13;;;;;;;;;;;18.10;78.30;;;;;;5050192;28;19917;-78
2023/04/26 14:11:38;;;;;;;;;;;18.00;78.10;;;;;;5050161;28;20358;-77
2023/04/26 14:14:04;;;;;;;;;;;17.90;78.20;;;;;;5032868;28;19913;-79
2023/04/26 14:16:30;;;;;;;;;;;17.80;78.10;;;;;;5052468;28;19913;-78
2023/04/26 14:18:55;;;;;;;;;;;17.60;78.20;;;;;;5050061;28;19919;-77
2023/04/26 14:21:21;;;;;;;;;;;17.60;78.30;;;;;;5050028;28;19943;-78